Time;durP1;ratioP1;P1;durP2;ratioP2;P2;SDS_P1;SDS_P2;PMS_P1;PMS_P2;Temp;Humidity;BMP_temperature;BMP_pressure;BME280_temperature;BME280_humidity;BME280_pressure;Samples;Min_cycle;Max_cycle;Signal;HPM_P1;HPM_P2
2024/01/02 00:01:07;;;;;;;3.60;0.60;;;;;;;;;;4966599;28;20038;-81
2024/01/02 00:03:33;;;;;;;2.25;0.80;;;;;;;;;;4970234;28;20121;-80
2024/01/02 00:05:58;;;;;;;1.58;0.85;;;;;;;;;;4987878;28;20066;-82
2024/01/02 00:08:24;;;;;;;0.60;0.60;;;;;;;;;;4990297;28;20030;-81
2024/01/02 00:10:49;;;;;;;1.10;0.50;;;;;;;;;;4965313;28;20122;-81
2024/01/02 00:13:15;;;;;;;2.53;0.90;;;;;;;;;;4990344;28;20120;-81
2024/01/02 00:15:40;;;;;;;1.48;0.77;;;;;;;;;;4990074;28;20038;-82
2024/01/02 00:18:05;;;;;;;1.40;0.70;;;;;;;;;;4983375;28;20034;-81
2024/01/02 00:20:30;;;;;;;0.50;0.50;;;;;;;;;;4978794;28;20096;-80
2024/01/02 00:22:56;;;;;;;0.95;0.88;;;;;;;;;;4986884;28;20035;-81
2024/01/02 00:25:21;;;;;;;1.20;0.90;;;;;;;;;;4987947;28;20047;-82
2024/01/02 00:27:47;;;;;;;4.68;0.75;;;;;;;;;;4964869;28;20046;-81
2024/01/02 00:30:13;;;;;;;1.30;0.88;;;;;;;;;;4977635;28;20062;-80
2024/01/02 00:32:38;;;;;;;1.58;0.90;;;;;;;;;;4971343;28;20057;-81
2024/01/02 00:35:04;;;;;;;0.60;0.60;;;;;;;;;;4969966;28;20038;-80
2024/01/02 00:37:29;;;;;;;1.38;0.73;;;;;;;;;;4989563;28;20546;-80
2024/01/02 00:39:55;;;;;;;0.70;0.70;;;;;;;;;;4978254;28;20054;-80
2024/01/02 00:42:20;;;;;;;3.60;0.68;;;;;;;;;;4994093;28;20504;-80
2024/01/02 00:44:46;;;;;;;2.60;0.95;;;;;;;;;;4990197;28;20415;-82
2024/01/02 00:47:12;;;;;;;2.35;0.55;;;;;;;;;;4995492;28;20037;-82
2024/01/02 00:49:38;;;;;;;1.30;0.75;;;;;;;;;;4969511;28;20098;-82
2024/01/02 00:52:03;;;;;;;1.75;0.82;;;;;;;;;;4963910;28;20500;-80
2024/01/02 00:54:29;;;;;;;0.68;0.63;;;;;;;;;;4966069;28;20549;-79
2024/01/02 00:56:55;;;;;;;7.25;1.00;;;;;;;;;;4986978;28;20056;-81
2024/01/02 00:59:20;;;;;;;1.17;0.70;;;;;;;;;;4985411;28;20050;-81
2024/01/02 01:01:45;;;;;;;1.42;0.80;;;;;;;;;;4964399;28;20035;-81
2024/01/02 01:04:11;;;;;;;2.00;0.85;;;;;;;;;;4975632;28;20038;-82
2024/01/02 01:06:36;;;;;;;0.95;0.95;;;;;;;;;;4967471;28;20495;-80
2024/01/02 01:09:02;;;;;;;2.33;1.02;;;;;;;;;;4995661;28;20045;-80
2024/01/02 01:11:27;;;;;;;1.10;0.88;;;;;;;;;;4993541;28;20038;-80
2024/01/02 01:13:52;;;;;;;0.57;0.57;;;;;;;;;;4990278;28;20396;-80
2024/01/02 01:16:17;;;;;;;1.85;0.98;;;;;;;;;;4992408;28;20070;-80
2024/01/02 01:18:43;;;;;;;3.75;1.02;;;;;;;;;;4969503;28;20472;-81
2024/01/02 01:21:08;;;;;;;0.80;0.80;;;;;;;;;;4967607;28;20027;-81
2024/01/02 01:23:34;;;;;;;3.22;1.05;;;;;;;;;;4990732;28;20125;-81
2024/01/02 01:26:00;;;;;;;0.77;0.60;;;;;;;;;;4966005;28;20527;-82
2024/01/02 01:28:25;;;;;;;1.55;0.63;;;;;;;;;;4980145;28;20049;-79
2024/01/02 01:30:50;;;;;;;1.48;1.10;;;;;;;;;;4991367;28;20045;-79
2024/01/02 01:33:16;;;;;;;0.70;0.70;;;;;;;;;;4993281;28;20093;-81
2024/01/02 01:35:41;;;;;;;0.60;0.60;;;;;;;;;;4979283;28;20093;-80
2024/01/02 01:38:07;;;;;;;3.75;0.77;;;;;;;;;;4994370;28;20081;-82
2024/01/02 01:40:32;;;;;;;0.73;0.73;;;;;;;;;;4989088;28;20042;-81
2024/01/02 01:42:58;;;;;;;2.40;0.90;;;;;;;;;;4994757;28;20073;-80
2024/01/02 01:45:23;;;;;;;0.60;0.60;;;;;;;;;;4989387;28;20073;-80
2024/01/02 01:47:50;;;;;;;1.00;0.90;;;;;;;;;;4962196;28;20080;-82
2024/01/02 01:50:16;;;;;;;0.70;0.70;;;;;;;;;;4982147;28;20134;-81
2024/01/02 01:52:42;;;;;;;1.00;0.77;;;;;;;;;;4990175;28;20545;-81
2024/01/02 01:55:09;;;;;;;1.10;0.80;;;;;;;;;;4987965;28;20045;-81
2024/01/02 01:57:34;;;;;;;1.55;0.57;;;;;;;;;;4991115;28;20566;-81
2024/01/02 02:00:00;;;;;;;0.75;0.65;;;;;;;;;;4976104;28;20058;-79
2024/01/02 02:02:26;;;;;;;1.48;0.60;;;;;;;;;;4976066;28;20092;-80
2024/01/02 02:04:53;;;;;;;0.60;0.60;;;;;;;;;;4987307;28;20038;-81
2024/01/02 02:07:18;;;;;;;3.15;0.88;;;;;;;;;;4965328;28;20117;-80
2024/01/02 02:09:43;;;;;;;7.50;1.08;;;;;;;;;;4969445;28;20034;-82
2024/01/02 02:12:09;;;;;;;1.65;0.73;;;;;;;;;;4983707;28;20050;-82
2024/01/02 02:14:36;;;;;;;1.83;1.25;;;;;;;;;;4981938;28;20169;-81
2024/01/02 02:17:01;;;;;;;3.45;0.73;;;;;;;;;;4969305;28;20034;-81
2024/01/02 02:19:26;;;;;;;1.05;0.80;;;;;;;;;;4983742;28;20034;-81
2024/01/02 02:21:52;;;;;;;1.45;1.10;;;;;;;;;;4976438;28;20061;-81
2024/01/02 02:24:18;;;;;;;1.45;1.10;;;;;;;;;;4989503;28;20092;-79
2024/01/02 02:26:43;;;;;;;2.50;1.10;;;;;;;;;;4961923;28;20035;-80
2024/01/02 02:29:09;;;;;;;0.90;0.88;;;;;;;;;;4991610;28;20030;-81
2024/01/02 02:31:34;;;;;;;0.90;0.70;;;;;;;;;;4984427;28;20078;-80
2024/01/02 02:34:00;;;;;;;0.93;0.68;;;;;;;;;;4993018;28;20030;-80
2024/01/02 02:36:25;;;;;;;1.10;0.77;;;;;;;;;;4961980;28;20041;-81
2024/01/02 02:38:50;;;;;;;0.75;0.60;;;;;;;;;;4984322;28;20039;-81
2024/01/02 02:41:16;;;;;;;0.57;0.57;;;;;;;;;;4962281;28;20106;-80
2024/01/02 02:43:41;;;;;;;1.65;0.75;;;;;;;;;;4971361;28;20481;-79
2024/01/02 02:46:06;;;;;;;1.00;0.80;;;;;;;;;;4972398;28;20491;-81
2024/01/02 02:48:31;;;;;;;0.50;0.50;;;;;;;;;;4982708;28;20030;-81
2024/01/02 02:50:57;;;;;;;0.70;0.70;;;;;;;;;;4981381;28;20038;-79
2024/01/02 02:53:22;;;;;;;0.55;0.55;;;;;;;;;;4974148;28;20588;-80
2024/01/02 02:55:47;;;;;;;1.10;0.70;;;;;;;;;;4981576;28;20042;-79
2024/01/02 02:58:13;;;;;;;0.80;0.60;;;;;;;;;;4959823;28;20369;-79
2024/01/02 03:00:38;;;;;;;1.75;0.65;;;;;;;;;;4978301;28;20400;-82
2024/01/02 03:03:04;;;;;;;1.92;0.68;;;;;;;;;;4966405;28;20034;-81
2024/01/02 03:05:29;;;;;;;0.43;0.43;;;;;;;;;;4972214;28;20030;-81
2024/01/02 03:07:54;;;;;;;2.30;0.70;;;;;;;;;;4980619;28;20053;-80
2024/01/02 03:10:20;;;;;;;0.50;0.50;;;;;;;;;;4971800;28;20052;-80
2024/01/02 03:12:48;;;;;;;3.97;0.80;;;;;;;;;;4983378;28;20109;-80
2024/01/02 03:15:14;;;;;;;0.45;0.45;;;;;;;;;;4957335;28;20026;-81
2024/01/02 03:17:40;;;;;;;0.57;0.57;;;;;;;;;;4980397;28;20023;-80
2024/01/02 03:20:06;;;;;;;0.65;0.55;;;;;;;;;;4988543;28;20109;-82
2024/01/02 03:22:31;;;;;;;0.50;0.50;;;;;;;;;;4978400;28;20043;-82
2024/01/02 03:24:56;;;;;;;0.55;0.55;;;;;;;;;;4987518;28;20067;-81
2024/01/02 03:27:22;;;;;;;0.50;0.50;;;;;;;;;;4975132;28;20178;-81
2024/01/02 03:29:47;;;;;;;2.13;0.57;;;;;;;;;;4978150;28;20055;-81
2024/01/02 03:32:12;;;;;;;0.70;0.70;;;;;;;;;;4984026;28;20035;-80
2024/01/02 03:34:38;;;;;;;0.40;0.40;;;;;;;;;;4974721;28;20050;-79
2024/01/02 03:37:04;;;;;;;0.32;0.32;;;;;;;;;;4976733;28;20049;-81
2024/01/02 03:39:29;;;;;;;0.55;0.55;;;;;;;;;;4975214;28;20073;-80
2024/01/02 03:41:55;;;;;;;6.18;0.50;;;;;;;;;;4964617;28;20080;-79
2024/01/02 03:44:20;;;;;;;0.57;0.57;;;;;;;;;;4960358;28;20391;-81
2024/01/02 03:46:46;;;;;;;0.60;0.60;;;;;;;;;;4979246;28;20046;-79
2024/01/02 03:49:11;;;;;;;0.70;0.70;;;;;;;;;;4983314;28;20081;-79
2024/01/02 03:51:37;;;;;;;0.70;0.70;;;;;;;;;;4983203;28;20043;-80
2024/01/02 03:54:02;;;;;;;0.55;0.55;;;;;;;;;;4992377;28;20038;-79
2024/01/02 03:56:27;;;;;;;0.60;0.60;;;;;;;;;;4988397;28;20407;-80
2024/01/02 03:58:53;;;;;;;0.50;0.50;;;;;;;;;;4967280;28;20031;-79
2024/01/02 04:01:18;;;;;;;0.50;0.50;;;;;;;;;;4968116;28;20027;-80
2024/01/02 04:03:43;;;;;;;0.50;0.50;;;;;;;;;;4977145;28;20377;-79
2024/01/02 04:06:08;;;;;;;0.50;0.50;;;;;;;;;;4979993;28;20035;-79
2024/01/02 04:08:36;;;;;;;0.70;0.70;;;;;;;;;;4981652;28;20031;-78
2024/01/02 04:11:02;;;;;;;0.40;0.40;;;;;;;;;;4988301;28;20038;-81
2024/01/02 04:13:27;;;;;;;1.85;0.70;;;;;;;;;;4989496;28;20108;-79
2024/01/02 04:15:52;;;;;;;0.70;0.70;;;;;;;;;;4972139;28;20069;-80
2024/01/02 04:18:18;;;;;;;0.75;0.68;;;;;;;;;;4969297;28;20054;-80
2024/01/02 04:20:43;;;;;;;1.20;0.60;;;;;;;;;;4989239;28;20060;-79
2024/01/02 04:23:08;;;;;;;0.73;0.73;;;;;;;;;;4974468;28;20106;-81
2024/01/02 04:25:34;;;;;;;1.17;0.80;;;;;;;;;;4986967;28;20399;-81
2024/01/02 04:27:59;;;;;;;1.33;0.70;;;;;;;;;;4955633;28;20114;-79
2024/01/02 04:30:25;;;;;;;1.15;1.00;;;;;;;;;;4980510;28;20049;-80
2024/01/02 04:32:50;;;;;;;0.90;0.90;;;;;;;;;;4991836;28;20047;-80
2024/01/02 04:35:16;;;;;;;5.38;2.45;;;;;;;;;;4974565;28;20400;-81
2024/01/02 04:37:42;;;;;;;6.30;1.90;;;;;;;;;;4987763;28;20106;-81
2024/01/02 04:40:12;;;;;;;1.25;1.23;;;;;;;;;;4957404;28;20484;-79
2024/01/02 04:42:38;;;;;;;0.60;0.60;;;;;;;;;;4981980;28;20041;-80
2024/01/02 04:45:04;;;;;;;0.70;0.70;;;;;;;;;;4986267;28;20042;-78
2024/01/02 04:47:29;;;;;;;3.85;1.90;;;;;;;;;;4993020;28;20041;-81
2024/01/02 04:49:55;;;;;;;1.63;1.20;;;;;;;;;;4986151;28;20661;-79
2024/01/02 04:52:21;;;;;;;2.42;0.85;;;;;;;;;;4986965;28;20118;-79
2024/01/02 04:54:46;;;;;;;0.50;0.50;;;;;;;;;;4994621;28;20046;-80
2024/01/02 04:57:12;;;;;;;0.60;0.60;;;;;;;;;;4990505;28;20046;-81
2024/01/02 04:59:37;;;;;;;0.50;0.50;;;;;;;;;;4990126;28;20049;-80
2024/01/02 05:02:02;;;;;;;2.25;1.00;;;;;;;;;;4988687;28;20038;-80
2024/01/02 05:04:29;;;;;;;0.63;0.63;;;;;;;;;;4989866;28;20049;-80
2024/01/02 05:06:54;;;;;;;0.75;0.75;;;;;;;;;;4993022;28;20035;-80
2024/01/02 05:09:19;;;;;;;2.20;0.63;;;;;;;;;;4982667;28;20794;-80
2024/01/02 05:11:45;;;;;;;0.40;0.40;;;;;;;;;;4965924;28;20090;-80
2024/01/02 05:14:10;;;;;;;0.60;0.60;;;;;;;;;;4993146;28;20054;-80
2024/01/02 05:16:36;;;;;;;0.50;0.50;;;;;;;;;;4987540;28;20046;-80
2024/01/02 05:19:01;;;;;;;3.25;1.20;;;;;;;;;;4976103;28;20033;-79
2024/01/02 05:21:27;;;;;;;1.08;1.02;;;;;;;;;;4958654;28;20176;-79
2024/01/02 05:23:52;;;;;;;0.90;0.90;;;;;;;;;;4988168;28;20062;-80
2024/01/02 05:26:18;;;;;;;0.60;0.60;;;;;;;;;;4994413;28;20042;-81
2024/01/02 05:28:43;;;;;;;1.05;0.63;;;;;;;;;;4974402;28;20573;-80
2024/01/02 05:31:08;;;;;;;0.70;0.70;;;;;;;;;;4991025;28;20042;-81
2024/01/02 05:33:34;;;;;;;0.70;0.70;;;;;;;;;;4972135;28;20039;-80
2024/01/02 05:35:59;;;;;;;0.80;0.80;;;;;;;;;;4985360;28;20042;-82
2024/01/02 05:38:24;;;;;;;0.50;0.50;;;;;;;;;;4992234;28;20090;-80
2024/01/02 05:40:50;;;;;;;1.20;0.60;;;;;;;;;;4987111;28;20111;-81
2024/01/02 05:43:15;;;;;;;0.65;0.50;;;;;;;;;;4992602;28;20123;-78
2024/01/02 05:45:40;;;;;;;0.65;0.50;;;;;;;;;;4979719;28;20073;-81
2024/01/02 05:48:07;;;;;;;0.60;0.60;;;;;;;;;;4987009;28;20041;-80
2024/01/02 05:50:32;;;;;;;0.50;0.50;;;;;;;;;;4966235;28;20039;-80
2024/01/02 05:52:57;;;;;;;1.15;0.57;;;;;;;;;;4981133;28;20035;-81
2024/01/02 05:55:23;;;;;;;0.75;0.50;;;;;;;;;;4992279;28;20038;-79
2024/01/02 05:57:48;;;;;;;0.65;0.65;;;;;;;;;;4990378;28;20061;-80
2024/01/02 06:00:14;;;;;;;0.60;0.60;;;;;;;;;;4975996;28;20026;-80
2024/01/02 06:02:39;;;;;;;0.60;0.60;;;;;;;;;;4968836;28;20035;-80
2024/01/02 06:05:05;;;;;;;0.90;0.63;;;;;;;;;;4972501;28;20047;-81
2024/01/02 06:07:30;;;;;;;0.55;0.55;;;;;;;;;;4981450;28;20046;-80
2024/01/02 06:09:57;;;;;;;1.02;0.50;;;;;;;;;;4968889;28;20031;-79
2024/01/02 06:12:22;;;;;;;0.70;0.70;;;;;;;;;;4968519;28;20038;-80
2024/01/02 06:14:47;;;;;;;0.60;0.60;;;;;;;;;;4963925;28;20035;-80
2024/01/02 06:17:13;;;;;;;0.40;0.40;;;;;;;;;;4981698;28;20556;-80
2024/01/02 06:19:38;;;;;;;0.57;0.57;;;;;;;;;;4972167;28;20030;-80
2024/01/02 06:22:04;;;;;;;0.65;0.65;;;;;;;;;;4975720;28;20050;-80
2024/01/02 06:24:30;;;;;;;0.60;0.60;;;;;;;;;;4974374;28;20034;-81
2024/01/02 06:26:55;;;;;;;0.57;0.57;;;;;;;;;;4992585;28;20113;-81
2024/01/02 06:29:21;;;;;;;0.60;0.60;;;;;;;;;;4985320;28;20046;-81
2024/01/02 06:31:46;;;;;;;0.50;0.50;;;;;;;;;;4986812;28;20050;-80
2024/01/02 06:34:11;;;;;;;0.75;0.50;;;;;;;;;;4985795;28;20038;-81
2024/01/02 06:36:37;;;;;;;8.55;0.90;;;;;;;;;;4968510;28;20038;-81
2024/01/02 06:39:02;;;;;;;0.88;0.60;;;;;;;;;;4982989;28;20038;-81
2024/01/02 06:41:27;;;;;;;0.60;0.60;;;;;;;;;;4973415;28;20047;-81
2024/01/02 06:43:53;;;;;;;0.80;0.60;;;;;;;;;;4972678;28;20045;-81
2024/01/02 06:46:18;;;;;;;0.88;0.80;;;;;;;;;;4965649;28;20039;-80
2024/01/02 06:48:43;;;;;;;1.27;0.82;;;;;;;;;;4979334;28;20122;-81
2024/01/02 06:51:09;;;;;;;0.60;0.50;;;;;;;;;;4976734;28;20046;-80
2024/01/02 06:53:34;;;;;;;1.00;0.70;;;;;;;;;;4983084;28;20034;-79
2024/01/02 06:55:59;;;;;;;0.73;0.50;;;;;;;;;;4985478;28;20034;-81
2024/01/02 06:58:25;;;;;;;0.73;0.65;;;;;;;;;;4963748;28;20082;-81
2024/01/02 07:00:50;;;;;;;0.47;0.43;;;;;;;;;;4971826;28;20558;-79
2024/01/02 07:03:17;;;;;;;0.52;0.52;;;;;;;;;;4978987;28;20198;-78
2024/01/02 07:05:42;;;;;;;1.23;0.75;;;;;;;;;;4969837;28;20034;-79
2024/01/02 07:08:07;;;;;;;0.70;0.70;;;;;;;;;;4983238;28;20406;-79
2024/01/02 07:10:32;;;;;;;1.77;0.73;;;;;;;;;;4981800;28;20046;-78
2024/01/02 07:12:58;;;;;;;0.70;0.50;;;;;;;;;;4964060;28;20055;-78
2024/01/02 07:15:24;;;;;;;0.40;0.40;;;;;;;;;;4973083;28;20035;-81
2024/01/02 07:17:49;;;;;;;1.67;0.80;;;;;;;;;;4980538;28;20071;-80
2024/01/02 07:20:14;;;;;;;0.50;0.50;;;;;;;;;;4987497;28;20038;-81
2024/01/02 07:22:40;;;;;;;0.68;0.65;;;;;;;;;;4942056;28;20073;-80
2024/01/02 07:25:05;;;;;;;4.68;0.80;;;;;;;;;;4970629;28;20046;-80
2024/01/02 07:27:31;;;;;;;0.70;0.70;;;;;;;;;;4976945;28;20065;-79
2024/01/02 07:29:56;;;;;;;0.65;0.63;;;;;;;;;;4970191;28;20578;-81
2024/01/02 07:32:21;;;;;;;0.68;0.68;;;;;;;;;;4979394;28;20046;-81
2024/01/02 07:34:47;;;;;;;1.13;1.02;;;;;;;;;;4958369;28;20404;-80
2024/01/02 07:37:12;;;;;;;0.88;0.88;;;;;;;;;;4971199;28;20108;-81
2024/01/02 07:39:38;;;;;;;1.02;0.85;;;;;;;;;;4978190;28;20037;-81
2024/01/02 07:42:05;;;;;;;0.70;0.70;;;;;;;;;;4984305;28;20573;-80
2024/01/02 07:44:30;;;;;;;0.63;0.63;;;;;;;;;;4973267;28;20067;-81
2024/01/02 07:46:56;;;;;;;0.60;0.60;;;;;;;;;;4976527;28;20657;-79
2024/01/02 07:49:21;;;;;;;0.68;0.57;;;;;;;;;;4957808;28;20122;-79
2024/01/02 07:51:46;;;;;;;0.43;0.43;;;;;;;;;;4987449;28;20301;-78
2024/01/02 07:54:12;;;;;;;0.90;0.60;;;;;;;;;;4962684;28;20098;-77
2024/01/02 07:56:37;;;;;;;0.40;0.40;;;;;;;;;;4977792;28;20584;-77
2024/01/02 07:59:02;;;;;;;0.50;0.50;;;;;;;;;;4994190;28;20041;-77
2024/01/02 08:01:27;;;;;;;0.60;0.60;;;;;;;;;;4976736;28;20062;-78
2024/01/02 08:03:53;;;;;;;3.00;0.77;;;;;;;;;;4976012;28;20132;-78
2024/01/02 08:06:18;;;;;;;0.40;0.40;;;;;;;;;;4959325;28;20054;-77
2024/01/02 08:08:43;;;;;;;1.05;0.65;;;;;;;;;;4993692;28;20116;-77
2024/01/02 08:11:09;;;;;;;0.50;0.50;;;;;;;;;;4963955;28;20178;-77
2024/01/02 08:13:34;;;;;;;0.30;0.30;;;;;;;;;;4975411;28;20091;-76
2024/01/02 08:16:03;;;;;;;0.65;0.63;;;;;;;;;;4979693;28;20050;-76
2024/01/02 08:18:39;;;;;;;0.30;0.30;;;;;;;;;;4971880;28;20042;-77
2024/01/02 08:21:05;;;;;;;0.55;0.55;;;;;;;;;;4972617;28;20033;-77
2024/01/02 08:23:30;;;;;;;0.30;0.30;;;;;;;;;;4956602;28;20035;-77
2024/01/02 08:25:55;;;;;;;1.40;0.60;;;;;;;;;;4973386;28;20523;-76
2024/01/02 08:28:21;;;;;;;0.60;0.60;;;;;;;;;;4987899;28;20038;-77
2024/01/02 08:30:46;;;;;;;0.88;0.65;;;;;;;;;;4992182;28;20042;-78
2024/01/02 08:33:11;;;;;;;0.65;0.45;;;;;;;;;;4992918;28;20041;-77
2024/01/02 08:35:37;;;;;;;2.10;0.40;;;;;;;;;;4994307;28;20034;-78
2024/01/02 08:38:02;;;;;;;0.68;0.65;;;;;;;;;;4992720;28;20042;-77
2024/01/02 08:40:27;;;;;;;0.38;0.38;;;;;;;;;;4992407;28;20026;-77
2024/01/02 08:42:54;;;;;;;0.40;0.40;;;;;;;;;;4958902;28;20530;-78
2024/01/02 08:45:19;;;;;;;0.30;0.30;;;;;;;;;;4973191;28;20057;-77
2024/01/02 08:47:44;;;;;;;0.25;0.25;;;;;;;;;;4974444;28;20501;-78
2024/01/02 08:50:10;;;;;;;0.22;0.22;;;;;;;;;;4982488;28;20446;-77
2024/01/02 08:52:35;;;;;;;0.30;0.30;;;;;;;;;;4971794;28;20042;-79
2024/01/02 08:55:02;;;;;;;0.30;0.30;;;;;;;;;;4991677;28;20041;-79
2024/01/02 08:57:27;;;;;;;0.52;0.52;;;;;;;;;;4974178;28;20035;-78
2024/01/02 08:59:52;;;;;;;0.30;0.30;;;;;;;;;;4967561;28;20068;-79
2024/01/02 09:02:18;;;;;;;0.30;0.30;;;;;;;;;;4992053;28;20042;-79
2024/01/02 09:04:43;;;;;;;0.40;0.40;;;;;;;;;;4982003;28;20041;-77
2024/01/02 09:07:09;;;;;;;0.30;0.30;;;;;;;;;;4999771;28;20050;-78
2024/01/02 09:09:35;;;;;;;0.30;0.30;;;;;;;;;;4998031;28;20039;-79
2024/01/02 09:12:02;;;;;;;0.40;0.40;;;;;;;;;;4991123;28;20046;-78
2024/01/02 09:14:28;;;;;;;0.57;0.40;;;;;;;;;;4983378;28;20529;-78
2024/01/02 09:16:53;;;;;;;1.90;0.70;;;;;;;;;;4988606;28;20130;-77
2024/01/02 09:19:19;;;;;;;0.28;0.28;;;;;;;;;;4977939;28;20046;-78
2024/01/02 09:21:44;;;;;;;0.47;0.47;;;;;;;;;;4995593;28;20041;-77
2024/01/02 09:24:11;;;;;;;0.30;0.30;;;;;;;;;;4996569;28;20034;-76
2024/01/02 09:26:44;;;;;;;0.25;0.25;;;;;;;;;;4995824;28;20044;-78
2024/01/02 09:29:09;;;;;;;1.25;0.50;;;;;;;;;;4996169;28;20527;-78
2024/01/02 09:31:35;;;;;;;0.30;0.30;;;;;;;;;;4993801;28;20046;-78
2024/01/02 09:34:00;;;;;;;0.45;0.45;;;;;;;;;;4995540;28;20076;-77
2024/01/02 09:36:29;;;;;;;0.40;0.40;;;;;;;;;;4986915;28;20459;-78
2024/01/02 09:38:55;;;;;;;0.40;0.40;;;;;;;;;;4959207;28;20038;-77
2024/01/02 09:41:38;;;;;;;0.75;0.50;;;;;;;;;;4991690;28;20027;-77
2024/01/02 09:44:27;;;;;;;0.30;0.30;;;;;;;;;;4996513;28;20047;-78
2024/01/02 09:46:52;;;;;;;0.50;0.40;;;;;;;;;;4995659;28;20085;-77
2024/01/02 09:49:34;;;;;;;0.40;0.40;;;;;;;;;;4979249;28;20443;-78
2024/01/02 09:52:18;;;;;;;9.68;0.60;;;;;;;;;;4995765;28;20121;-78
2024/01/02 09:55:18;;;;;;;0.30;0.30;;;;;;;;;;4940416;29;20031;-77
2024/01/02 09:57:47;;;;;;;0.30;0.30;;;;;;;;;;4948924;28;20043;-77
2024/01/02 10:00:24;;;;;;;0.30;0.30;;;;;;;;;;4955843;28;20042;-76
2024/01/02 10:03:14;;;;;;;0.40;0.40;;;;;;;;;;4958021;29;20618;-77
2024/01/02 10:05:52;;;;;;;1.50;0.38;;;;;;;;;;4956689;29;20042;-78
2024/01/02 10:08:20;;;;;;;0.28;0.22;;;;;;;;;;4987907;28;20034;-80
2024/01/02 10:11:10;;;;;;;0.30;0.30;;;;;;;;;;4974897;28;20047;-78
2024/01/02 10:13:50;;;;;;;0.40;0.40;;;;;;;;;;4952312;28;20039;-78
2024/01/02 10:16:31;;;;;;;0.30;0.30;;;;;;;;;;4962538;28;20181;-77
2024/01/02 10:19:26;;;;;;;0.30;0.30;;;;;;;;;;4974164;28;20126;-78
2024/01/02 10:22:08;;;;;;;3.28;0.40;;;;;;;;;;4975588;28;20524;-77
2024/01/02 10:25:03;;;;;;;0.20;0.20;;;;;;;;;;4986166;28;20038;-78
2024/01/02 10:28:07;;;;;;;0.32;0.32;;;;;;;;;;4982294;28;20049;-78
2024/01/02 10:30:50;;;;;;;0.30;0.30;;;;;;;;;;4963691;28;20048;-78
2024/01/02 10:33:31;;;;;;;0.30;0.30;;;;;;;;;;4976641;28;20053;-77
2024/01/02 10:36:26;;;;;;;0.30;0.30;;;;;;;;;;4970006;28;20462;-78
2024/01/02 10:39:20;;;;;;;0.30;0.30;;;;;;;;;;4979884;28;20459;-78
2024/01/02 10:41:59;;;;;;;0.30;0.30;;;;;;;;;;4968489;28;20278;-78
2024/01/02 10:44:39;;;;;;;0.50;0.50;;;;;;;;;;4958669;28;20038;-77
2024/01/02 10:47:34;;;;;;;0.40;0.40;;;;;;;;;;4989681;28;20088;-78
2024/01/02 10:50:02;;;;;;;0.77;0.45;;;;;;;;;;4952312;28;20038;-76
2024/01/02 10:53:01;;;;;;;0.30;0.30;;;;;;;;;;4986914;28;20058;-78
2024/01/02 10:55:41;;;;;;;0.30;0.30;;;;;;;;;;4986337;28;20530;-78
2024/01/02 10:58:28;;;;;;;0.63;0.63;;;;;;;;;;4975055;28;20050;-78
2024/01/02 11:01:02;;;;;;;0.90;0.40;;;;;;;;;;4969077;28;20457;-77
2024/01/02 11:03:30;;;;;;;0.40;0.40;;;;;;;;;;4988586;28;20061;-79
2024/01/02 11:06:11;;;;;;;0.70;0.70;;;;;;;;;;4979464;28;20039;-79
2024/01/02 11:08:59;;;;;;;0.30;0.30;;;;;;;;;;4983878;28;20047;-78
2024/01/02 11:11:26;;;;;;;0.40;0.40;;;;;;;;;;4966913;28;20038;-79
2024/01/02 11:13:52;;;;;;;0.30;0.30;;;;;;;;;;4986065;28;20039;-78
2024/01/02 11:16:19;;;;;;;0.40;0.40;;;;;;;;;;4989323;28;20047;-78
2024/01/02 11:18:49;;;;;;;0.57;0.57;;;;;;;;;;4974135;28;20034;-77
2024/01/02 11:21:38;;;;;;;0.32;0.32;;;;;;;;;;4989182;28;20086;-77
2024/01/02 11:24:07;;;;;;;0.45;0.38;;;;;;;;;;4990475;28;20042;-76
2024/01/02 11:26:44;;;;;;;0.28;0.22;;;;;;;;;;4981736;28;20424;-78
2024/01/02 11:29:20;;;;;;;0.80;0.50;;;;;;;;;;4990382;28;20030;-78
2024/01/02 11:31:48;;;;;;;2.33;0.55;;;;;;;;;;4972731;28;20601;-77
2024/01/02 11:34:42;;;;;;;0.40;0.40;;;;;;;;;;4989974;28;20061;-78
2024/01/02 11:37:34;;;;;;;0.30;0.30;;;;;;;;;;4989286;28;20031;-78
2024/01/02 11:40:29;;;;;;;0.40;0.40;;;;;;;;;;4970871;28;20038;-77
2024/01/02 11:42:57;;;;;;;0.40;0.40;;;;;;;;;;4989121;28;20039;-77
2024/01/02 11:45:25;;;;;;;0.32;0.32;;;;;;;;;;4991921;28;20034;-78
2024/01/02 11:47:54;;;;;;;0.40;0.40;;;;;;;;;;4988941;28;20027;-78
2024/01/02 11:50:26;;;;;;;0.40;0.40;;;;;;;;;;4989107;28;20046;-78
2024/01/02 11:53:06;;;;;;;0.40;0.40;;;;;;;;;;4989688;28;21465;-78
2024/01/02 11:55:48;;;;;;;0.40;0.40;;;;;;;;;;4972655;28;20038;-78
2024/01/02 11:58:22;;;;;;;0.47;0.47;;;;;;;;;;4975071;28;20038;-78
2024/01/02 12:01:16;;;;;;;0.40;0.40;;;;;;;;;;4974909;28;20070;-78
2024/01/02 12:04:03;;;;;;;0.40;0.40;;;;;;;;;;4963533;28;20045;-78
2024/01/02 12:06:37;;;;;;;0.60;0.60;;;;;;;;;;4978715;28;20037;-78
2024/01/02 12:09:11;;;;;;;0.80;0.43;;;;;;;;;;4968809;28;20046;-78
2024/01/02 12:11:44;;;;;;;0.30;0.30;;;;;;;;;;4984115;28;20054;-77
2024/01/02 12:14:17;;;;;;;0.40;0.40;;;;;;;;;;4991223;28;20038;-77
2024/01/02 12:16:45;;;;;;;0.40;0.40;;;;;;;;;;4972361;28;20038;-78
2024/01/02 12:19:16;;;;;;;0.55;0.55;;;;;;;;;;4962621;28;20562;-78
2024/01/02 12:21:42;;;;;;;0.50;0.50;;;;;;;;;;4989471;28;20039;-78
2024/01/02 12:24:14;;;;;;;0.40;0.40;;;;;;;;;;4973298;28;20057;-77
2024/01/02 12:26:41;;;;;;;0.25;0.25;;;;;;;;;;4986210;28;20043;-77
2024/01/02 12:29:07;;;;;;;2.35;0.30;;;;;;;;;;4984587;28;20042;-79
2024/01/02 12:31:41;;;;;;;0.45;0.30;;;;;;;;;;4968697;28;20402;-78
2024/01/02 12:34:14;;;;;;;0.50;0.50;;;;;;;;;;4976592;28;20117;-78
2024/01/02 12:36:47;;;;;;;4.30;0.70;;;;;;;;;;4990779;28;20089;-78
2024/01/02 12:39:19;;;;;;;0.40;0.40;;;;;;;;;;4996003;28;20536;-78
2024/01/02 12:41:51;;;;;;;0.50;0.47;;;;;;;;;;4968278;28;20035;-78
2024/01/02 12:44:18;;;;;;;0.40;0.40;;;;;;;;;;4953696;28;20046;-77
2024/01/02 12:46:51;;;;;;;0.30;0.30;;;;;;;;;;4983627;28;20103;-78
2024/01/02 12:49:27;;;;;;;0.30;0.30;;;;;;;;;;4969778;28;20058;-80
2024/01/02 12:52:00;;;;;;;0.38;0.38;;;;;;;;;;4968815;28;20141;-78
2024/01/02 12:54:27;;;;;;;0.52;0.40;;;;;;;;;;4977081;28;20069;-77
2024/01/02 12:56:59;;;;;;;0.30;0.30;;;;;;;;;;4949928;29;20507;-77
2024/01/02 12:59:30;;;;;;;0.30;0.30;;;;;;;;;;4941121;29;20039;-77
2024/01/02 13:01:57;;;;;;;0.65;0.40;;;;;;;;;;4940054;29;20042;-77
2024/01/02 13:04:24;;;;;;;0.30;0.30;;;;;;;;;;4973083;28;20042;-77
2024/01/02 13:06:50;;;;;;;3.50;0.40;;;;;;;;;;4962104;28;20050;-77
2024/01/02 13:09:17;;;;;;;0.40;0.40;;;;;;;;;;4977370;28;20551;-78
2024/01/02 13:11:42;;;;;;;0.38;0.38;;;;;;;;;;4977059;28;20066;-78
2024/01/02 13:14:10;;;;;;;1.30;0.45;;;;;;;;;;4988992;28;20506;-76
2024/01/02 13:16:35;;;;;;;0.28;0.28;;;;;;;;;;4979519;28;20400;-77
2024/01/02 13:19:01;;;;;;;0.32;0.32;;;;;;;;;;4995790;28;20041;-78
2024/01/02 13:21:26;;;;;;;0.20;0.20;;;;;;;;;;4996935;28;20090;-78
2024/01/02 13:23:56;;;;;;;0.30;0.30;;;;;;;;;;4979375;28;20491;-77
2024/01/02 13:26:23;;;;;;;0.40;0.40;;;;;;;;;;4996589;28;20514;-78
2024/01/02 13:28:53;;;;;;;0.47;0.38;;;;;;;;;;4996513;28;20499;-78
2024/01/02 13:31:29;;;;;;;0.40;0.40;;;;;;;;;;4994524;28;20464;-77
2024/01/02 13:33:55;;;;;;;0.40;0.40;;;;;;;;;;4994639;28;20101;-77
2024/01/02 13:36:22;;;;;;;0.25;0.25;;;;;;;;;;4978347;28;20454;-76
2024/01/02 13:38:48;;;;;;;0.40;0.40;;;;;;;;;;4978587;28;20074;-77
2024/01/02 13:41:14;;;;;;;0.52;0.40;;;;;;;;;;4978493;28;20123;-78
2024/01/02 13:43:39;;;;;;;0.38;0.38;;;;;;;;;;4978817;28;20458;-78
2024/01/02 13:46:12;;;;;;;0.30;0.30;;;;;;;;;;4996155;28;20042;-77
2024/01/02 13:48:59;;;;;;;0.40;0.40;;;;;;;;;;4997271;28;20042;-78
2024/01/02 13:51:27;;;;;;;0.30;0.30;;;;;;;;;;4978292;28;20061;-77
2024/01/02 13:54:04;;;;;;;0.30;0.30;;;;;;;;;;4979727;28;20038;-78
2024/01/02 13:56:33;;;;;;;4.97;0.75;;;;;;;;;;4996149;28;20042;-76
2024/01/02 13:59:01;;;;;;;0.30;0.30;;;;;;;;;;4995671;28;20446;-77
2024/01/02 14:01:42;;;;;;;0.50;0.50;;;;;;;;;;4978072;28;20042;-77
2024/01/02 14:04:19;;;;;;;0.40;0.40;;;;;;;;;;4995186;28;20030;-77
2024/01/02 14:06:45;;;;;;;0.40;0.40;;;;;;;;;;4994509;28;20069;-77
2024/01/02 14:09:21;;;;;;;0.40;0.40;;;;;;;;;;4961187;28;20035;-77
2024/01/02 14:12:01;;;;;;;0.30;0.30;;;;;;;;;;4995099;28;20530;-76
2024/01/02 14:14:59;;;;;;;0.35;0.35;;;;;;;;;;4976990;28;20456;-78
2024/01/02 14:17:33;;;;;;;0.40;0.40;;;;;;;;;;4996007;28;20050;-77
2024/01/02 14:20:11;;;;;;;6.30;0.75;;;;;;;;;;4995977;28;20129;-78
2024/01/02 14:23:16;;;;;;;0.40;0.40;;;;;;;;;;4978294;28;20050;-76
2024/01/02 14:25:52;;;;;;;;;;;;;;;;;;4950810;28;20123;-77
2024/01/02 14:28:22;;;;;;;0.40;0.40;;;;;;;;;;4960768;28;19914;-77
2024/01/02 14:31:10;;;;;;;0.30;0.30;;;;;;;;;;4976825;28;20039;-77
2024/01/02 14:34:13;;;;;;;0.50;0.50;;;;;;;;;;4976145;28;20027;-77
2024/01/02 14:37:01;;;;;;;0.60;0.50;;;;;;;;;;4976359;28;20035;-77
2024/01/02 14:39:54;;;;;;;0.40;0.40;;;;;;;;;;4976743;28;20038;-78
2024/01/02 14:42:57;;;;;;;0.38;0.38;;;;;;;;;;4976136;28;20031;-78
2024/01/02 14:45:41;;;;;;;0.40;0.40;;;;;;;;;;4958452;28;21773;-77
2024/01/02 14:48:22;;;;;;;0.40;0.40;;;;;;;;;;4959320;28;20038;-77
2024/01/02 14:51:06;;;;;;;0.57;0.57;;;;;;;;;;4975923;28;20093;-77
2024/01/02 14:53:48;;;;;;;0.30;0.30;;;;;;;;;;4975581;28;20558;-78
2024/01/02 14:56:36;;;;;;;0.40;0.40;;;;;;;;;;4957506;28;20034;-77